Terminal Aerodrome Forecast
Issued by NWS

Home | Current Version | Previous Version | Text Only | Print | Product List | Glossary On
Versions: 1 2 3 4 5 6 7 8 9 10 11 12 13 14 15 16 17 18
000
FTUS46 KPDT 061730
TAFYKM
TAF
KYKM 061730Z 0618/0718 VRB06KT P6SM SCT090
     FM062000 34008KT P6SM VCSH BKN080 BKN120
     FM070000 32011KT P6SM VCSH SCT080 SCT120
     FM070700 30010KT P6SM SCT090=

USA.gov is the U.S. government's official web portal to all federal, state and local government web resources and services.